Bookmark and Share
Track history (hours):
 

Pernille

Last reported at 2014-Apr-19 08:31 UTC. Time now 2014-Apr-23 09:42 UTC.
Position N 59°59' E 026°38'.

Length 82 m; draft 4.3 m.

Type: Cargo ship. MMSI: 212662000.

NotesDate/timePositionNaut miles runAvg speedWind from/ knotsBaromVisibWave heightAir tempDewpointWater temp
2014-Apr-19 08:31N 59°59' E 026°38'6811.5
2014-Apr-19 02:34N 59°43' E 024°26'1711.6
2014-Apr-19 01:07N 59°38' E 023°55'711.4
2014-Apr-19 00:28N 59°35' E 023°41'272 6.0
2014-Apr-17 03:27N 55°27' E 020°17'1512.0
2014-Apr-17 02:13N 55°18' E 019°56'1011.9
2014-Apr-17 01:25N 55°13' E 019°42'1011.8
2014-Apr-17 00:33N 55°06' E 019°29'1111.0
2014-Apr-16 23:33N 54°57' E 019°18'1110.9
2014-Apr-16 22:34N 54°47' E 019°11'1111.4
2014-Apr-16 21:33N 54°38' E 018°59'1211.6
2014-Apr-16 20:33N 54°30' E 018°45'6 6.1
2014-Apr-16 19:33N 54°24' E 018°40'0 0.0
2014-Apr-16 18:32N 54°24' E 018°40'0 0.0
2014-Apr-16 17:32N 54°24' E 018°40'0 0.0
2014-Apr-16 16:32N 54°24' E 018°40'0 0.0
2014-Apr-16 15:32N 54°24' E 018°40'0 0.0
2014-Apr-16 14:32N 54°24' E 018°40'0 0.0
2014-Apr-16 13:32N 54°24' E 018°40'0 0.0
2014-Apr-16 12:32N 54°24' E 018°40'0 0.0
2014-Apr-16 11:32N 54°24' E 018°40'0 0.0
2014-Apr-16 10:32N 54°24' E 018°40'0 0.0
2014-Apr-16 09:32N 54°24' E 018°40'0 0.0
2014-Apr-16 08:32N 54°24' E 018°40'0 0.0
2014-Apr-16 07:32N 54°24' E 018°40'0 0.0
2014-Apr-16 06:32N 54°24' E 018°40'0 0.0
2014-Apr-16 05:32N 54°24' E 018°40'0 0.0
2014-Apr-16 04:32N 54°24' E 018°40'0 0.0
2014-Apr-16 03:32N 54°24' E 018°40'0 0.0
2014-Apr-16 02:32N 54°24' E 018°40'0 0.0
2014-Apr-16 01:32N 54°24' E 018°40'0 0.0
2014-Apr-16 00:29N 54°24' E 018°40'0 0.0
2014-Apr-15 23:32N 54°24' E 018°40'0 0.0
2014-Apr-15 22:32N 54°24' E 018°40'0 0.0
2014-Apr-15 21:32N 54°24' E 018°40'0 0.0
2014-Apr-15 20:32N 54°24' E 018°40'0 0.0
2014-Apr-15 19:32N 54°24' E 018°40'2 2.3
2014-Apr-15 18:33N 54°26' E 018°40'1 0.9
2014-Apr-15 17:32N 54°27' E 018°40'0 0.0
2014-Apr-15 16:32N 54°27' E 018°40'0 0.0
2014-Apr-15 15:32N 54°27' E 018°40'0 0.0
2014-Apr-15 14:32N 54°27' E 018°40'0 0.0
2014-Apr-15 12:33N 54°27' E 018°40'1 0.9
2014-Apr-15 11:34N 54°28' E 018°41'1110.8
2014-Apr-15 10:34N 54°36' E 018°53'1110.6
2014-Apr-15 09:34N 54°46' E 018°57'1111.1
2014-Apr-15 08:34N 54°53' E 018°42'1110.8
2014-Apr-15 07:34N 54°55' E 018°23'1111.2
2014-Apr-15 06:34N 54°54' E 018°04'14010.7
2014-Apr-14 17:33N 54°39' E 014°03'1111.2
2014-Apr-14 16:33N 54°41' E 013°44'1111.4
2014-Apr-14 15:34N 54°43' E 013°25'1111.2
2014-Apr-14 14:33N 54°40' E 013°06'1110.7
2014-Apr-14 13:33N 54°36' E 012°49'2110.5
2014-Apr-14 11:34N 54°28' E 012°15'2010.2
2014-Apr-14 09:33N 54°26' E 011°40'1312.5
2014-Apr-14 08:33N 54°32' E 011°21'82 8.2
2014-Apr-13 22:33N 53°57' E 009°14'5 4.7
2014-Apr-13 21:33N 53°54' E 009°09'1 1.3
2014-Apr-13 20:33N 53°53' E 009°11'2 1.8
2014-Apr-13 19:33N 53°53' E 009°14'1110.7
2014-Apr-13 18:33N 53°45' E 009°25'1212.4
2014-Apr-13 17:33N 53°35' E 009°38'1111.3
2014-Apr-13 16:33N 53°32' E 009°56'1 0.9
2014-Apr-13 15:33N 53°31' E 009°57'0 0.0
2014-Apr-13 14:33N 53°31' E 009°57'0 0.0
2014-Apr-13 13:33N 53°31' E 009°57'0 0.0
2014-Apr-13 12:33N 53°31' E 009°57'0 0.0
2014-Apr-13 11:33N 53°31' E 009°57'0 0.0
2014-Apr-13 10:30N 53°31' E 009°57'0 0.0
2014-Apr-13 09:33N 53°31' E 009°57'0 0.0
2014-Apr-13 08:33N 53°31' E 009°57'0 0.0
2014-Apr-13 07:33N 53°31' E 009°57'0 0.0
2014-Apr-13 06:33N 53°31' E 009°57'0 0.0
2014-Apr-13 05:33N 53°31' E 009°57'0 0.4
2014-Apr-13 04:33N 53°31' E 009°56'3 2.0
2014-Apr-13 03:16N 53°32' E 010°00'0 0.0
2014-Apr-13 02:25N 53°32' E 010°00'0 0.0
2014-Apr-13 01:13N 53°32' E 010°00'0 0.0
2014-Apr-13 00:31N 53°32' E 010°00'0 0.0
2014-Apr-12 23:16N 53°32' E 010°00'0 0.0
2014-Apr-12 22:25N 53°32' E 010°00'0 0.0
2014-Apr-12 21:28N 53°32' E 010°00'0 0.0
2014-Apr-12 20:16N 53°32' E 010°00'0 0.0
2014-Apr-12 19:28N 53°32' E 010°00'0 0.0
2014-Apr-12 18:31N 53°32' E 010°00'0 0.0
2014-Apr-12 17:32N 53°32' E 010°00'0 0.0
2014-Apr-12 16:34N 53°32' E 010°00'0 0.0
2014-Apr-12 15:34N 53°32' E 010°00'0 0.0
2014-Apr-12 14:34N 53°32' E 010°00'0 0.0
2014-Apr-12 13:33N 53°32' E 010°00'0 0.0
2014-Apr-12 12:33N 53°32' E 010°00'0 0.0
2014-Apr-12 11:33N 53°32' E 010°00'0 0.0
2014-Apr-12 10:33N 53°32' E 010°00'0 0.0
2014-Apr-12 09:34N 53°32' E 010°00'0 0.0
2014-Apr-12 08:33N 53°32' E 010°00'0 0.0
2014-Apr-12 07:33N 53°32' E 010°00'0 0.0
2014-Apr-12 06:34N 53°32' E 010°00'0 0.0
2014-Apr-12 05:33N 53°32' E 010°00'0 0.0
2014-Apr-12 04:34N 53°32' E 010°00'0 0.0
2014-Apr-12 03:34N 53°32' E 010°00'0 0.0
2014-Apr-12 02:34N 53°32' E 010°00'0 0.0
2014-Apr-12 01:33N 53°32' E 010°00'0 0.0
2014-Apr-12 00:33N 53°32' E 010°00'0 0.0
2014-Apr-11 23:34N 53°32' E 010°00'0 0.0
2014-Apr-11 22:34N 53°32' E 010°00'0 0.0
2014-Apr-11 21:33N 53°32' E 010°00'0 0.0
2014-Apr-11 20:34N 53°32' E 010°00'0 0.0
2014-Apr-11 19:33N 53°32' E 010°00'0 0.0
2014-Apr-11 18:34N 53°32' E 010°00'0 0.0
2014-Apr-11 17:34N 53°32' E 010°00'0 0.0
2014-Apr-11 16:33N 53°32' E 010°00'0 0.0
2014-Apr-11 15:33N 53°32' E 010°00'0 0.0
2014-Apr-11 14:34N 53°32' E 010°00'0 0.0
2014-Apr-11 13:30N 53°32' E 010°00'0 0.0
2014-Apr-11 12:33N 53°32' E 010°00'0 0.0
2014-Apr-11 11:33N 53°32' E 010°00'0 0.0
2014-Apr-11 10:34N 53°32' E 010°00'0 0.0
2014-Apr-11 09:33N 53°32' E 010°00'0 0.0
2014-Apr-11 08:34N 53°32' E 010°00'0 0.0
2014-Apr-11 07:33N 53°32' E 010°00'0 0.0
2014-Apr-11 06:33N 53°32' E 010°00'0 0.0
2014-Apr-11 05:34N 53°32' E 010°00'0 0.0
2014-Apr-11 04:33N 53°32' E 010°00'0 0.0
2014-Apr-11 03:34N 53°32' E 010°00'0 0.0
2014-Apr-11 02:34N 53°32' E 010°00'0 0.0
2014-Apr-11 01:34N 53°32' E 010°00'0 0.0
2014-Apr-11 00:33N 53°32' E 010°00'0 0.0
2014-Apr-10 23:34N 53°32' E 010°00'0 0.0
2014-Apr-10 22:34N 53°32' E 010°00'0 0.0
2014-Apr-10 21:34N 53°32' E 010°00'0 0.0
2014-Apr-10 20:34N 53°32' E 010°00'0 0.0
2014-Apr-10 19:34N 53°32' E 010°00'0 0.0
2014-Apr-10 18:34N 53°32' E 010°00'0 0.0
2014-Apr-10 17:34N 53°32' E 010°00'0 0.0
2014-Apr-10 16:34N 53°32' E 010°00'0 0.0
2014-Apr-10 15:34N 53°32' E 010°00'0 0.0
2014-Apr-10 14:34N 53°32' E 010°00'0 0.0
2014-Apr-10 13:33N 53°32' E 010°00'0 0.0
2014-Apr-10 12:34N 53°32' E 010°00'0 0.0
2014-Apr-10 11:34N 53°32' E 010°00'0 0.0
2014-Apr-10 10:34N 53°32' E 010°00'0 0.3
2014-Apr-10 09:34N 53°32' E 009°60'10 9.7
2014-Apr-10 08:33N 53°34' E 009°44'1312.9
2014-Apr-10 07:34N 53°43' E 009°28'1413.7
2014-Apr-10 06:33N 53°53' E 009°12'1413.8
2014-Apr-10 05:33N 53°50' E 008°49'1313.0
2014-Apr-10 04:33N 53°58' E 008°32'1313.3
2014-Apr-10 03:34N 53°59' E 008°09'1313.0
2014-Apr-10 02:33N 53°56' E 007°47'1212.3
2014-Apr-10 01:33N 53°53' E 007°27'1211.7
2014-Apr-10 00:34N 53°51' E 007°08'28 9.4
2014-Apr-09 21:32N 53°37' E 006°26'1313.1
2014-Apr-09 20:33N 53°31' E 006°46'1313.2
2014-Apr-09 19:34N 53°21' E 006°59'10 9.8
2014-Apr-09 18:33N 53°19' E 007°16'9 8.0
2014-Apr-09 17:29N 53°13' E 007°26'7 7.1
2014-Apr-09 16:32N 53°07' E 007°22'  

Dump ship's entire track history

sailing weather and tide predictions

Pernille — 5BNZ2 — position and weather